»·PEaware :: N773B KMHV-KSBP

N773B :: KMHV-KSBP

FLIGHT INFORMATION

Flight Status: Arrived
Operator: Privately registered:
United States
More flights under this callsign
Pilot: Chad R. (42745)
Aircraft: BEECH AIRCRAFT BONANZA
(BE36)
More flights by this aircraft type
Origin: KMHV Mojave
United States
Destination: KSBP San Luis Co Regl
United States
More flights between these airports :: More routes between these airports
Route:
File this flight plan on PilotEdge
Remarks: flight following
Altitude:
(Current/Filed)
6,500ft
Speed:
(Current/Filed)
150kts
Departed: 28-Jan-23 08:24 AM
Arrived: 28-Jan-23 09:11 AM
Distance/Time
Traveled:
123nm/0:47
Distance/Time
To Go:
Arrived

Flight Plot

Page will automatically refresh every two minutes.

Flight plan parsing failed; only flown route is shown


Map Options




Map Legend


Flown Route
Filed Route
Departure Airport
Arrival Airport
Navaid (VOR, NDB)
Fix

Horizontal Profiles

Position Reports

Time Latitude Longitude Heading Altitude Ground
Speed
28-Jan-23 08:13 35.057394 -118.151347 272 2745ft 0kts
28-Jan-23 08:14 35.057394 -118.151347 272 2745ft 0kts
28-Jan-23 08:15 35.057395 -118.151347 272 2745ft 0kts
28-Jan-23 08:16 35.057394 -118.151347 272 2745ft 0kts
28-Jan-23 08:17 35.057394 -118.151347 272 2745ft 0kts
28-Jan-23 08:18 35.057394 -118.151347 272 2745ft 0kts
28-Jan-23 08:19 35.057394 -118.151347 272 2745ft 0kts
28-Jan-23 08:20 35.057511 -118.151515 349 2757ft 6kts
28-Jan-23 08:21 35.057615 -118.146608 90 2748ft 19kts
28-Jan-23 08:22 35.058007 -118.142563 2 2738ft 9kts
28-Jan-23 08:23 35.058854 -118.142618 350 2739ft 13kts
28-Jan-23 08:24 35.058999 -118.165167 271 3517ft 96kts
28-Jan-23 08:25 35.059504 -118.196868 271 5042ft 92kts
28-Jan-23 08:26 35.059663 -118.228480 273 6332ft 94kts
28-Jan-23 08:27 35.059437 -118.271891 270 6512ft 154kts
28-Jan-23 08:28 35.063206 -118.325643 284 6522ft 162kts
28-Jan-23 08:29 35.075959 -118.378184 290 6537ft 160kts
28-Jan-23 08:29 35.088283 -118.421494 290 6544ft 162kts
28-Jan-23 08:31 35.102167 -118.484070 283 6539ft 165kts
28-Jan-23 08:32 35.108386 -118.539316 269 6531ft 166kts
28-Jan-23 08:33 35.105308 -118.595730 269 6515ft 166kts
28-Jan-23 08:33 35.102457 -118.642415 269 6510ft 165kts
28-Jan-23 08:34 35.100736 -118.697807 291 6503ft 161kts
28-Jan-23 08:35 35.106713 -118.752080 279 6495ft 161kts
28-Jan-23 08:37 35.111661 -118.816370 279 6431ft 164kts
28-Jan-23 08:38 35.115924 -118.872238 279 6430ft 166kts
28-Jan-23 08:38 35.119432 -118.918623 279 6428ft 165kts
28-Jan-23 08:39 35.123623 -118.974215 279 6437ft 166kts
28-Jan-23 08:40 35.127792 -119.030052 279 6437ft 165kts
28-Jan-23 08:41 35.131952 -119.086044 279 6442ft 165kts
28-Jan-23 08:42 35.136073 -119.141703 280 6454ft 163kts
28-Jan-23 08:43 35.140123 -119.197202 280 6453ft 162kts
28-Jan-23 08:44 35.144186 -119.252292 280 6459ft 164kts
28-Jan-23 08:45 35.148181 -119.307647 281 6454ft 163kts
28-Jan-23 08:46 35.152195 -119.363153 281 6469ft 165kts
28-Jan-23 08:47 35.156201 -119.419155 281 6471ft 165kts
28-Jan-23 08:48 35.160168 -119.474979 281 6476ft 165kts
28-Jan-23 08:49 35.164135 -119.531093 281 6480ft 166kts
28-Jan-23 08:50 35.168142 -119.587743 281 6486ft 167kts
28-Jan-23 08:51 35.172028 -119.644236 281 6494ft 165kts
28-Jan-23 08:52 35.175896 -119.699993 281 6484ft 164kts
28-Jan-23 08:53 35.179725 -119.755416 281 6491ft 164kts
28-Jan-23 08:54 35.183508 -119.811034 281 6490ft 162kts
28-Jan-23 08:55 35.187297 -119.866526 281 6492ft 164kts
28-Jan-23 08:56 35.191050 -119.922451 281 6493ft 166kts
28-Jan-23 08:57 35.194782 -119.978074 281 6491ft 165kts
28-Jan-23 08:58 35.198510 -120.034171 281 6484ft 166kts
28-Jan-23 08:59 35.202221 -120.089677 281 6520ft 164kts
28-Jan-23 09:00 35.205985 -120.147804 278 6532ft 171kts
28-Jan-23 09:01 35.204378 -120.204945 258 6333ft 170kts
28-Jan-23 09:02 35.191196 -120.260148 265 6184ft 178kts
28-Jan-23 09:03 35.186544 -120.320971 277 5249ft 184kts
28-Jan-23 09:04 35.191000 -120.383714 280 4245ft 188kts
28-Jan-23 09:05 35.201144 -120.446129 286 3299ft 187kts
28-Jan-23 09:06 35.205411 -120.504428 265 3243ft 169kts
28-Jan-23 09:07 35.205929 -120.556242 269 2970ft 172kts
28-Jan-23 09:08 35.213274 -120.599295 303 1338ft 118kts
28-Jan-23 09:09 35.230750 -120.629625 305 345ft 95kts
28-Jan-23 09:10 35.237488 -120.639928 11 194ft 0kts

Navigation Log

Ident Type
Flight plan parsing failed, navigation log unavailable